Time;durP1;ratioP1;P1;durP2;ratioP2;P2;SDS_P1;SDS_P2;PMS_P1;PMS_P2;Temp;Humidity;BMP_temperature;BMP_pressure;BME280_temperature;BME280_humidity;BME280_pressure;Samples;Min_cycle;Max_cycle;Signal;HPM_P1;HPM_P2
2023/01/24 00:01:19;;;;;;;13.90;10.05;;;3.60;99.90;;;;;;5090104;28;20205;-76
2023/01/24 00:03:47;;;;;;;13.60;10.68;;;3.60;99.90;;;;;;5089370;28;20320;-76
2023/01/24 00:06:15;;;;;;;13.85;11.20;;;3.60;34.70;;;;;;5090974;28;20199;-77
2023/01/24 00:08:43;;;;;;;12.45;9.75;;;3.50;1.00;;;;;;5092362;27;20285;-76
2023/01/24 00:11:13;;;;;;;14.65;12.25;;;3.60;99.90;;;;;;5093704;28;20221;-76
2023/01/24 00:13:42;;;;;;;15.00;11.05;;;3.70;99.90;;;;;;5093003;28;20224;-75
2023/01/24 00:16:14;;;;;;;15.77;9.93;;;3.50;99.90;;;;;;5087458;27;20696;-76
2023/01/24 00:18:43;;;;;;;14.43;10.52;;;3.60;1.00;;;;;;5093816;28;20252;-76
2023/01/24 00:21:13;;;;;;;13.05;9.85;;;3.50;1.00;;;;;;5093867;28;21116;-76
2023/01/24 00:23:42;;;;;;;18.52;12.15;;;3.50;99.90;;;;;;5090815;28;20225;-76
2023/01/24 00:26:11;;;;;;;13.73;10.50;;;3.60;1.00;;;;;;5084137;28;20286;-77
2023/01/24 00:28:40;;;;;;;14.60;10.95;;;3.60;36.50;;;;;;5094311;28;20198;-77
2023/01/24 00:31:09;;;;;;;11.98;10.40;;;3.60;93.00;;;;;;5090873;28;20226;-78
2023/01/24 00:33:37;;;;;;;17.10;10.73;;;3.50;1.00;;;;;;5091809;28;20215;-77
2023/01/24 00:36:07;;;;;;;16.52;12.07;;;3.60;99.90;;;;;;5068258;28;20278;-76
2023/01/24 00:38:35;;;;;;;16.45;11.60;;;3.60;99.90;;;;;;5085623;28;20216;-76
2023/01/24 00:41:03;;;;;;;16.48;11.30;;;3.60;99.90;;;;;;5088367;28;20213;-76
2023/01/24 00:43:31;;;;;;;15.20;10.65;;;3.70;99.90;;;;;;5090939;28;20772;-77
2023/01/24 00:46:00;;;;;;;14.57;11.02;;;3.70;35.00;;;;;;5084903;28;20298;-76
2023/01/24 00:48:29;;;;;;;14.52;11.48;;;3.70;35.70;;;;;;5091225;28;20207;-78
2023/01/24 00:50:57;;;;;;;14.15;10.50;;;3.70;99.90;;;;;;5093050;28;20257;-76
2023/01/24 00:53:26;;;;;;;14.85;11.50;;;3.70;34.90;;;;;;5091963;28;20218;-77
2023/01/24 00:55:54;;;;;;;14.90;10.93;;;3.70;1.00;;;;;;5085388;28;20210;-75
2023/01/24 00:58:23;;;;;;;15.15;11.85;;;3.70;99.90;;;;;;5092880;28;20202;-77
2023/01/24 01:00:51;;;;;;;14.95;11.43;;;3.70;1.00;;;;;;5089338;28;20201;-75
2023/01/24 01:03:20;;;;;;;14.05;10.20;;;3.70;99.90;;;;;;5091659;28;20315;-76
2023/01/24 01:05:49;;;;;;;12.85;9.48;;;3.70;99.90;;;;;;5092342;28;20207;-76
2023/01/24 01:08:17;;;;;;;13.48;9.90;;;3.70;99.90;;;;;;5090255;28;20259;-76
2023/01/24 01:10:45;;;;;;;15.32;11.15;;;3.70;27.00;;;;;;5094926;28;20230;-75
2023/01/24 01:13:14;;;;;;;17.83;10.75;;;3.60;1.00;;;;;;5092894;28;20284;-75
2023/01/24 01:15:42;;;;;;;13.00;10.88;;;3.60;99.90;;;;;;5092067;28;20204;-76
2023/01/24 01:18:10;;;;;;;12.27;9.25;;;3.60;1.00;;;;;;5094489;28;20191;-75
2023/01/24 01:20:38;;;;;;;11.23;8.75;;;3.60;1.00;;;;;;5094100;28;20225;-75
2023/01/24 01:23:08;;;;;;;13.88;10.93;;;3.60;1.00;;;;;;5097088;28;20230;-76
2023/01/24 01:25:39;;;;;;;12.10;9.18;;;3.60;1.00;;;;;;5094196;28;21914;-75
2023/01/24 01:28:07;;;;;;;13.50;10.50;;;3.60;1.00;;;;;;5090770;28;20206;-77
2023/01/24 01:30:35;;;;;;;14.82;9.77;;;3.60;1.00;;;;;;5084969;28;20317;-77
2023/01/24 01:33:03;;;;;;;10.85;9.35;;;3.60;99.90;;;;;;5088586;28;20359;-76
2023/01/24 01:35:31;;;;;;;12.32;9.75;;;3.60;99.90;;;;;;5086051;28;20200;-79
2023/01/24 01:37:59;;;;;;;11.65;9.05;;;3.70;99.90;;;;;;5087500;28;20192;-78
2023/01/24 01:40:29;;;;;;;12.15;8.80;;;3.60;99.90;;;;;;5087925;28;20196;-78
2023/01/24 01:42:58;;;;;;;12.20;9.27;;;3.70;99.90;;;;;;5088563;28;20924;-76
2023/01/24 01:45:36;;;;;;;14.80;10.20;;;3.60;27.20;;;;;;5090912;28;20218;-76
2023/01/24 01:48:16;;;;;;;10.70;9.32;;;3.60;99.90;;;;;;5081221;28;20295;-75
2023/01/24 01:50:48;;;;;;;13.18;9.40;;;3.60;1.00;;;;;;5071341;28;20289;-77
2023/01/24 01:53:16;;;;;;;14.48;10.63;;;3.50;1.00;;;;;;5086483;28;20855;-76
2023/01/24 01:55:51;;;;;;;12.40;9.15;;;3.50;33.70;;;;;;5089904;28;20297;-75
2023/01/24 01:58:20;;;;;;;12.30;10.48;;;3.50;19.90;;;;;;5092977;28;20201;-77
2023/01/24 02:00:50;;;;;;;10.63;8.68;;;3.50;99.90;;;;;;5087575;28;20219;-77
2023/01/24 02:03:38;;;;;;;12.77;9.95;;;3.50;1.00;;;;;;5090743;28;20228;-77
2023/01/24 02:06:12;;;;;;;11.32;9.52;;;3.50;3.40;;;;;;5082988;28;20994;-76
2023/01/24 02:08:41;;;;;;;11.35;9.02;;;3.60;99.90;;;;;;5095467;28;20283;-77
2023/01/24 02:16:46;;;;;;;13.48;9.88;;;3.60;99.90;;;;;;5091208;28;20358;-77
2023/01/24 02:19:28;;;;;;;13.65;9.90;;;3.50;1.00;;;;;;5095619;28;20218;-76
2023/01/24 02:22:07;;;;;;;11.27;9.45;;;3.50;1.00;;;;;;5096430;28;20600;-76
2023/01/24 02:24:41;;;;;;;13.40;11.05;;;3.50;99.90;;;;;;5087273;27;20246;-75
2023/01/24 02:27:10;;;;;;;13.10;10.07;;;3.60;99.90;;;;;;5088782;28;20215;-77
2023/01/24 02:29:38;;;;;;;13.88;11.48;;;3.60;99.90;;;;;;5089302;28;20248;-75
2023/01/24 02:32:08;;;;;;;17.00;11.82;;;3.60;36.00;;;;;;5090062;28;20251;-77
2023/01/24 02:34:36;;;;;;;13.85;11.02;;;3.50;1.00;;;;;;5091540;28;20269;-75
2023/01/24 02:37:08;;;;;;;13.50;11.00;;;3.50;1.00;;;;;;5093027;28;20217;-76
2023/01/24 02:39:45;;;;;;;16.08;10.13;;;3.60;55.60;;;;;;5091234;28;20214;-77
2023/01/24 02:42:20;;;;;;;13.10;10.30;;;3.50;1.00;;;;;;5091236;28;20692;-75
2023/01/24 02:44:53;;;;;;;12.98;10.35;;;3.50;99.90;;;;;;5073530;28;20187;-76
2023/01/24 02:47:21;;;;;;;10.60;9.07;;;3.40;99.90;;;;;;5095785;28;20566;-76
2023/01/24 02:49:49;;;;;;;17.30;12.30;;;3.40;1.00;;;;;;5092193;28;20231;-76
2023/01/24 02:55:03;;;;;;;12.07;10.07;;;3.40;4.90;;;;;;5092308;28;20289;-76
2023/01/24 03:00:19;;;;;;;16.85;12.07;;;3.50;1.00;;;;;;5097815;28;20196;-76
2023/01/24 03:02:47;;;;;;;13.88;11.35;;;3.50;99.90;;;;;;5095297;28;20305;-75
2023/01/24 03:05:15;;;;;;;13.23;10.40;;;3.50;1.00;;;;;;5072908;28;20406;-77
2023/01/24 03:07:44;;;;;;;17.48;12.32;;;3.50;99.90;;;;;;5093147;28;20671;-79
2023/01/24 03:10:15;;;;;;;17.23;11.23;;;3.50;1.00;;;;;;5097670;28;20214;-76
2023/01/24 03:34:51;;;;;;;12.80;10.10;;;3.50;1.00;;;;;;5075362;28;20214;-77
2023/01/24 03:39:53;;;;;;;14.75;11.43;;;3.60;1.00;;;;;;5088214;27;21092;-77
2023/01/24 03:40:12;;;;;;;12.50;9.93;;;3.60;99.90;;;;;;5094336;28;20206;-76
2023/01/24 03:42:47;;;;;;;13.43;10.13;;;3.60;99.90;;;;;;5088114;27;20215;-75
2023/01/24 03:45:19;;;;;;;16.55;10.80;;;3.60;1.00;;;;;;5087590;28;20695;-78
2023/01/24 03:47:54;;;;;;;14.43;10.27;;;3.60;99.90;;;;;;5090795;27;20210;-77
2023/01/24 03:53:10;;;;;;;15.98;10.25;;;3.60;99.90;;;;;;5092502;28;20220;-76
2023/01/24 03:55:39;;;;;;;13.90;10.10;;;3.60;99.90;;;;;;5088459;28;20678;-77
2023/01/24 03:58:08;;;;;;;17.70;11.23;;;3.60;1.00;;;;;;5093573;28;20191;-75
2023/01/24 04:00:39;;;;;;;15.73;11.00;;;3.60;99.90;;;;;;5091165;28;20709;-76
2023/01/24 04:03:07;;;;;;;15.93;10.02;;;3.50;1.00;;;;;;5092713;28;20271;-76
2023/01/24 04:05:35;;;;;;;17.67;11.63;;;3.70;99.90;;;;;;5092827;28;20267;-76
2023/01/24 04:08:04;;;;;;;16.10;11.15;;;3.60;99.90;;;;;;5089515;28;20201;-76
2023/01/24 04:10:32;;;;;;;14.45;10.50;;;3.50;1.00;;;;;;5096281;28;20203;-79
2023/01/24 04:13:01;;;;;;;17.30;12.10;;;3.60;99.90;;;;;;5085698;28;20220;-77
2023/01/24 04:15:31;;;;;;;16.70;11.65;;;3.60;1.00;;;;;;5090220;27;20198;-76
2023/01/24 04:18:02;;;;;;;13.85;10.45;;;3.60;99.90;;;;;;5091999;28;20287;-77
2023/01/24 04:20:32;;;;;;;13.45;10.50;;;3.60;1.00;;;;;;5088038;28;20281;-76
2023/01/24 04:23:01;;;;;;;14.60;11.02;;;3.60;1.00;;;;;;5091402;28;20218;-76
2023/01/24 04:25:29;;;;;;;17.95;11.43;;;3.60;1.00;;;;;;5091728;28;20197;-76
2023/01/24 04:27:58;;;;;;;17.20;12.05;;;3.60;99.90;;;;;;5092941;28;20194;-76
2023/01/24 04:30:26;;;;;;;17.50;11.98;;;3.60;99.90;;;;;;5089414;28;20279;-77
2023/01/24 04:32:54;;;;;;;14.73;11.40;;;3.60;1.00;;;;;;5086661;28;20248;-76
2023/01/24 04:35:26;;;;;;;14.60;9.68;;;3.50;1.00;;;;;;5091222;28;20210;-76
2023/01/24 04:37:58;;;;;;;14.70;11.95;;;3.50;1.00;;;;;;5089283;28;20249;-76
2023/01/24 04:40:26;;;;;;;13.98;10.48;;;3.60;1.00;;;;;;5091787;28;20198;-77
2023/01/24 04:42:56;;;;;;;13.25;11.85;;;3.50;1.00;;;;;;5088727;28;20294;-79
2023/01/24 04:45:25;;;;;;;16.77;11.55;;;3.50;1.00;;;;;;5092912;28;20537;-77
2023/01/24 04:47:54;;;;;;;15.40;11.45;;;3.50;99.90;;;;;;5088008;28;20228;-76
2023/01/24 04:50:24;;;;;;;17.10;11.27;;;3.60;84.60;;;;;;5088828;28;20290;-76
2023/01/24 04:52:52;;;;;;;17.08;12.02;;;3.50;1.00;;;;;;5092164;28;20225;-75
2023/01/24 04:55:20;;;;;;;14.15;11.25;;;3.50;1.00;;;;;;5089924;28;20277;-77
2023/01/24 04:57:49;;;;;;;13.85;11.15;;;3.50;99.90;;;;;;5090244;28;20200;-76
2023/01/24 05:00:18;;;;;;;14.95;11.38;;;3.50;1.00;;;;;;5090422;28;20278;-76
2023/01/24 05:02:46;;;;;;;16.17;11.60;;;3.60;1.00;;;;;;5092440;28;20225;-75
2023/01/24 05:05:14;;;;;;;14.80;10.98;;;3.60;99.90;;;;;;5090116;28;20214;-76
2023/01/24 05:07:44;;;;;;;19.35;11.90;;;3.60;99.90;;;;;;5094744;28;20248;-77
2023/01/24 05:10:12;;;;;;;15.45;11.45;;;3.50;99.90;;;;;;5092209;28;20211;-76
2023/01/24 05:12:40;;;;;;;17.17;11.75;;;3.60;99.90;;;;;;5091388;28;20230;-76
2023/01/24 05:15:10;;;;;;;13.00;10.15;;;3.50;99.90;;;;;;5093526;28;20684;-77
2023/01/24 05:17:38;;;;;;;16.92;11.20;;;3.50;1.00;;;;;;5092025;28;20253;-76
2023/01/24 05:20:07;;;;;;;17.98;11.65;;;3.60;1.00;;;;;;5094507;28;20652;-76
2023/01/24 05:22:35;;;;;;;16.70;11.40;;;3.60;1.00;;;;;;5095073;28;20195;-76
2023/01/24 05:25:05;;;;;;;18.50;12.32;;;3.50;1.00;;;;;;5093344;28;20233;-76
2023/01/24 05:27:33;;;;;;;17.58;11.52;;;3.50;1.00;;;;;;5102946;28;20185;-78
2023/01/24 05:30:02;;;;;;;18.02;12.85;;;3.60;1.00;;;;;;5092770;28;20198;-75
2023/01/24 05:32:30;;;;;;;14.25;10.82;;;3.60;1.00;;;;;;5088137;28;20982;-75
2023/01/24 05:34:58;;;;;;;17.27;12.50;;;3.60;1.00;;;;;;5086396;28;20644;-77
2023/01/24 05:37:26;;;;;;;17.65;12.50;;;3.60;1.00;;;;;;5095354;28;20290;-77
2023/01/24 05:39:54;;;;;;;16.15;11.65;;;3.60;1.00;;;;;;5087135;28;20690;-78
2023/01/24 05:42:24;;;;;;;14.48;11.18;;;3.60;1.00;;;;;;5086957;28;20190;-77
2023/01/24 05:44:52;;;;;;;19.60;12.13;;;3.70;1.00;;;;;;5089929;28;20259;-77
2023/01/24 05:47:20;;;;;;;15.20;11.90;;;3.70;99.90;;;;;;5089191;28;20206;-77
2023/01/24 05:49:48;;;;;;;15.65;12.35;;;3.70;99.90;;;;;;5090893;28;20287;-76
2023/01/24 05:52:20;;;;;;;15.50;11.30;;;3.70;1.00;;;;;;5095384;28;20282;-77
2023/01/24 05:54:49;;;;;;;14.68;11.05;;;3.70;1.00;;;;;;5096031;28;20538;-76
2023/01/24 05:57:17;;;;;;;15.40;11.57;;;3.70;99.90;;;;;;5091676;28;20268;-77
2023/01/24 05:59:47;;;;;;;18.02;12.00;;;3.70;1.00;;;;;;5094073;28;20194;-78
2023/01/24 06:02:15;;;;;;;16.23;11.60;;;3.70;1.00;;;;;;5090604;28;20744;-80
2023/01/24 06:04:43;;;;;;;15.98;12.02;;;3.70;99.90;;;;;;5092753;28;20226;-77
2023/01/24 06:07:11;;;;;;;16.70;11.77;;;3.70;1.00;;;;;;5086046;28;20199;-76
2023/01/24 06:09:39;;;;;;;14.93;11.63;;;3.80;99.90;;;;;;5074594;28;20191;-76
2023/01/24 06:12:07;;;;;;;16.70;11.25;;;3.70;99.90;;;;;;5096130;28;20279;-75
2023/01/24 06:14:35;;;;;;;22.15;14.82;;;3.70;1.00;;;;;;5094029;27;20327;-78
2023/01/24 06:17:05;;;;;;;16.02;11.52;;;3.60;1.00;;;;;;5092042;28;20202;-76
2023/01/24 06:19:34;;;;;;;18.13;12.35;;;3.60;1.00;;;;;;5092784;28;20248;-77
2023/01/24 06:22:11;;;;;;;18.10;12.60;;;3.70;1.00;;;;;;5088145;28;20689;-77
2023/01/24 06:24:39;;;;;;;16.50;11.55;;;3.60;1.00;;;;;;5087047;27;20275;-78
2023/01/24 06:27:10;;;;;;;17.65;11.98;;;3.70;1.00;;;;;;5091443;27;20210;-77
2023/01/24 06:29:38;;;;;;;17.48;11.50;;;3.70;1.00;;;;;;5091694;28;20845;-77
2023/01/24 06:32:20;;;;;;;14.50;9.95;;;3.70;1.00;;;;;;5083269;28;20222;-78
2023/01/24 06:35:07;;;;;;;16.88;11.00;;;3.80;1.00;;;;;;5086105;28;21213;-79
2023/01/24 06:37:44;;;;;;;18.95;11.60;;;3.70;1.00;;;;;;5087616;28;20200;-78
2023/01/24 06:40:18;;;;;;;17.58;12.20;;;3.60;1.00;;;;;;5085455;28;20531;-77
2023/01/24 06:42:47;;;;;;;13.45;10.73;;;3.60;1.00;;;;;;5084623;27;20244;-78
2023/01/24 06:45:15;;;;;;;20.40;12.63;;;3.60;1.00;;;;;;5087861;28;20314;-77
2023/01/24 06:47:45;;;;;;;16.85;11.43;;;3.60;1.00;;;;;;5085166;28;20688;-78
2023/01/24 06:50:16;;;;;;;18.20;13.85;;;3.60;11.20;;;;;;5086679;28;20216;-78
2023/01/24 06:52:46;;;;;;;15.07;10.77;;;3.60;64.60;;;;;;5084393;28;20238;-78
2023/01/24 06:55:14;;;;;;;16.30;11.73;;;3.60;1.00;;;;;;5087093;28;20196;-76
2023/01/24 06:57:43;;;;;;;19.05;12.98;;;3.60;11.00;;;;;;5083878;27;20199;-75
2023/01/24 07:00:12;;;;;;;14.75;11.57;;;3.60;1.00;;;;;;5097596;28;20968;-75
2023/01/24 07:02:41;;;;;;;18.98;11.98;;;3.70;1.00;;;;;;5083497;28;21003;-75
2023/01/24 07:05:11;;;;;;;14.63;11.25;;;3.70;1.00;;;;;;5092451;27;20209;-77
2023/01/24 07:07:39;;;;;;;19.58;11.77;;;3.70;1.00;;;;;;5095331;28;20200;-76
2023/01/24 07:10:08;;;;;;;15.55;11.88;;;3.70;1.00;;;;;;5096354;28;20625;-77
2023/01/24 07:12:36;;;;;;;17.95;13.20;;;3.80;1.00;;;;;;5096192;28;20265;-79
2023/01/24 07:15:06;;;;;;;22.02;13.35;;;3.80;99.90;;;;;;5095830;28;20202;-79
2023/01/24 07:17:34;;;;;;;18.45;11.57;;;3.80;99.90;;;;;;5095529;28;20209;-77
2023/01/24 07:20:03;;;;;;;19.83;12.88;;;3.80;99.90;;;;;;5097208;28;20727;-77
2023/01/24 07:22:34;;;;;;;16.35;12.10;;;3.80;99.90;;;;;;5097150;28;20217;-76
2023/01/24 07:25:03;;;;;;;18.42;12.02;;;3.80;99.90;;;;;;5097010;28;20336;-77
2023/01/24 07:27:31;;;;;;;16.98;11.90;;;3.80;63.20;;;;;;5095948;28;20294;-77
2023/01/24 07:29:59;;;;;;;18.40;13.30;;;3.70;1.00;;;;;;5076702;28;20281;-78
2023/01/24 07:32:27;;;;;;;16.88;11.02;;;3.70;99.90;;;;;;5095427;27;20195;-78
2023/01/24 07:34:56;;;;;;;17.50;12.07;;;3.80;99.90;;;;;;5096554;28;21111;-77
2023/01/24 07:37:24;;;;;;;18.20;11.68;;;3.80;99.90;;;;;;5096119;28;20284;-77
2023/01/24 07:39:53;;;;;;;14.23;11.60;;;3.70;99.90;;;;;;5078105;27;20210;-72
2023/01/24 07:42:22;;;;;;;20.75;13.25;;;3.80;99.90;;;;;;5084958;28;20609;-78
2023/01/24 07:44:50;;;;;;;20.73;13.05;;;3.80;99.90;;;;;;5092988;28;20908;-77
2023/01/24 07:47:18;;;;;;;17.50;13.30;;;3.90;1.00;;;;;;5092655;28;20573;-79
2023/01/24 07:49:46;;;;;;;20.63;13.57;;;3.90;1.00;;;;;;5075206;28;20206;-77
2023/01/24 07:52:15;;;;;;;21.45;14.82;;;3.80;1.00;;;;;;5087419;27;20251;-76
2023/01/24 07:54:43;;;;;;;18.35;13.38;;;3.80;99.90;;;;;;5088937;28;20283;-77
2023/01/24 07:57:12;;;;;;;19.13;13.13;;;3.90;1.00;;;;;;5090097;27;20253;-76
2023/01/24 07:59:41;;;;;;;17.30;12.32;;;3.80;1.00;;;;;;5090554;28;20663;-78
2023/01/24 08:02:11;;;;;;;18.42;13.25;;;3.80;1.00;;;;;;5078976;28;20200;-78
2023/01/24 08:04:40;;;;;;;19.45;13.30;;;3.80;99.90;;;;;;5086467;28;20852;-78
2023/01/24 08:07:20;;;;;;;19.30;13.90;;;3.80;99.90;;;;;;5088937;27;20218;-77
2023/01/24 08:09:49;;;;;;;21.33;12.88;;;3.80;99.90;;;;;;5097187;28;20273;-76
2023/01/24 08:12:22;;;;;;;22.73;13.75;;;3.80;99.90;;;;;;5092903;28;20244;-75
2023/01/24 08:14:50;;;;;;;20.25;14.52;;;3.80;99.90;;;;;;5096104;28;20225;-76
2023/01/24 08:17:18;;;;;;;27.27;17.27;;;3.80;99.90;;;;;;5092755;28;20269;-77
2023/01/24 08:19:46;;;;;;;20.83;14.20;;;3.80;99.90;;;;;;5091529;28;20204;-74
2023/01/24 08:22:25;;;;;;;18.23;13.75;;;3.80;1.20;;;;;;5092106;28;20225;-77
2023/01/24 08:24:53;;;;;;;15.57;12.32;;;3.80;99.90;;;;;;5089610;27;20192;-76
2023/01/24 08:27:23;;;;;;;21.35;13.38;;;3.90;99.90;;;;;;5089899;28;20215;-78
2023/01/24 08:29:51;;;;;;;22.25;13.57;;;3.90;1.00;;;;;;5088529;27;20211;-77
2023/01/24 08:32:19;;;;;;;18.00;11.90;;;3.90;1.00;;;;;;5088807;28;20209;-77
2023/01/24 08:34:48;;;;;;;18.67;12.48;;;3.90;1.00;;;;;;5086920;28;20231;-76
2023/01/24 08:37:16;;;;;;;20.63;13.73;;;4.00;99.90;;;;;;5090221;28;20194;-76
2023/01/24 08:39:44;;;;;;;18.25;13.05;;;4.00;99.90;;;;;;5090410;27;20203;-75
2023/01/24 08:42:13;;;;;;;17.95;13.13;;;4.00;92.00;;;;;;5094310;28;20674;-78
2023/01/24 08:44:42;;;;;;;17.50;12.23;;;4.00;99.90;;;;;;5087476;28;20214;-76
2023/01/24 08:47:11;;;;;;;14.27;10.98;;;4.00;1.00;;;;;;5088212;28;20234;-77
2023/01/24 08:49:39;;;;;;;18.00;12.25;;;4.10;1.00;;;;;;5091842;28;20583;-77
2023/01/24 08:52:07;;;;;;;17.60;12.27;;;4.10;34.30;;;;;;5086966;28;20749;-77
2023/01/24 08:54:37;;;;;;;16.20;11.38;;;4.10;36.10;;;;;;5069598;28;20629;-77
2023/01/24 08:57:06;;;;;;;17.42;11.32;;;4.10;99.90;;;;;;5088843;28;20202;-76
2023/01/24 08:59:34;;;;;;;19.25;12.77;;;4.00;99.90;;;;;;5087459;28;20657;-76
2023/01/24 09:02:05;;;;;;;19.67;13.98;;;4.00;1.00;;;;;;5086979;28;20195;-77
2023/01/24 09:04:33;;;;;;;16.05;12.52;;;4.00;1.00;;;;;;5089832;28;20237;-77
2023/01/24 09:07:02;;;;;;;14.88;11.18;;;4.10;99.90;;;;;;5090088;28;20792;-76
2023/01/24 09:09:31;;;;;;;17.40;12.32;;;4.10;99.90;;;;;;5086360;28;20202;-77
2023/01/24 09:12:00;;;;;;;17.75;11.80;;;4.10;99.90;;;;;;5085660;28;20281;-79
2023/01/24 09:14:30;;;;;;;18.70;12.98;;;4.10;33.70;;;;;;5087568;28;20225;-78
2023/01/24 09:16:59;;;;;;;17.75;12.40;;;4.10;1.00;;;;;;5092021;28;20198;-77
2023/01/24 09:19:30;;;;;;;17.02;12.35;;;4.10;99.90;;;;;;5089562;28;20203;-76
2023/01/24 09:21:58;;;;;;;17.92;12.02;;;4.10;99.90;;;;;;5088692;28;20202;-77
2023/01/24 09:24:26;;;;;;;17.98;13.32;;;4.00;1.00;;;;;;5092192;28;20213;-77
2023/01/24 09:26:54;;;;;;;16.70;12.48;;;4.10;1.00;;;;;;5097705;28;20202;-77
2023/01/24 09:29:22;;;;;;;17.80;13.32;;;4.10;99.90;;;;;;5105268;27;20211;-79
2023/01/24 09:31:51;;;;;;;20.50;12.95;;;4.00;99.90;;;;;;5100142;28;20203;-78
2023/01/24 09:34:19;;;;;;;16.55;11.25;;;4.00;99.90;;;;;;5094483;28;20222;-76
2023/01/24 09:36:50;;;;;;;17.67;12.40;;;4.00;1.00;;;;;;5098735;28;20212;-76
2023/01/24 09:39:18;;;;;;;13.00;9.90;;;4.10;1.00;;;;;;5100540;28;20653;-77
2023/01/24 09:41:56;;;;;;;18.40;12.90;;;4.10;1.00;;;;;;5091032;28;20194;-77
2023/01/24 09:44:44;;;;;;;17.67;13.85;;;4.20;1.00;;;;;;5096158;28;20902;-78
2023/01/24 09:47:18;;;;;;;17.90;12.18;;;4.10;99.90;;;;;;5098403;28;20195;-77
2023/01/24 09:49:51;;;;;;;20.48;12.73;;;4.20;99.90;;;;;;5096968;28;20197;-78
2023/01/24 09:52:28;;;;;;;15.18;11.50;;;4.10;99.90;;;;;;5095233;28;20287;-77
2023/01/24 09:55:03;;;;;;;17.58;12.30;;;4.10;1.00;;;;;;5084447;28;20206;-78
2023/01/24 09:57:42;;;;;;;20.27;13.52;;;4.10;99.90;;;;;;5065485;28;20210;-76
2023/01/24 10:00:18;;;;;;;20.30;13.98;;;4.10;99.90;;;;;;5085879;28;20210;-78
2023/01/24 10:02:47;;;;;;;19.70;12.45;;;4.10;1.00;;;;;;5084048;27;20218;-77
2023/01/24 10:05:17;;;;;;;17.98;12.73;;;4.10;99.90;;;;;;5075677;28;20655;-76
2023/01/24 10:08:05;;;;;;;20.17;13.55;;;4.10;99.90;;;;;;5089238;28;20651;-77
2023/01/24 10:10:43;;;;;;;16.00;12.63;;;4.10;30.60;;;;;;5087701;28;20542;-78
2023/01/24 10:13:26;;;;;;;18.30;12.55;;;4.20;99.90;;;;;;5087227;28;20938;-77
2023/01/24 10:16:01;;;;;;;17.55;11.52;;;4.20;99.90;;;;;;5085833;28;20703;-76
2023/01/24 10:18:47;;;;;;;17.65;12.30;;;4.10;99.90;;;;;;5066924;28;20402;-78
2023/01/24 10:21:35;;;;;;;17.75;12.55;;;4.10;99.90;;;;;;5088284;27;20210;-75
2023/01/24 10:24:09;;;;;;;19.10;13.20;;;4.10;99.90;;;;;;5081176;28;20231;-76
2023/01/24 10:26:43;;;;;;;17.95;13.55;;;4.20;1.00;;;;;;5085419;27;20202;-77
2023/01/24 10:29:15;;;;;;;17.00;13.43;;;4.20;99.90;;;;;;5086798;28;20226;-77
2023/01/24 10:31:50;;;;;;;21.52;13.40;;;4.20;99.90;;;;;;5090171;28;20202;-76
2023/01/24 10:34:25;;;;;;;15.85;12.80;;;4.10;99.90;;;;;;5085415;28;20227;-77
2023/01/24 10:36:58;;;;;;;18.58;13.75;;;4.20;1.00;;;;;;5085729;28;20198;-77
2023/01/24 10:39:28;;;;;;;20.88;13.65;;;4.30;1.00;;;;;;5087852;28;20273;-78
2023/01/24 10:41:56;;;;;;;19.95;13.10;;;4.40;1.00;;;;;;5089570;28;20203;-77
2023/01/24 10:44:27;;;;;;;16.13;11.52;;;4.40;1.00;;;;;;5093681;27;20235;-76
2023/01/24 10:47:21;;;;;;;22.52;13.00;;;4.40;99.90;;;;;;5099012;28;20202;-77
2023/01/24 10:49:56;;;;;;;18.75;12.75;;;4.40;1.00;;;;;;5087084;28;20203;-78
2023/01/24 10:52:24;;;;;;;20.60;13.43;;;4.40;99.90;;;;;;5086163;28;20195;-78
2023/01/24 10:54:56;;;;;;;18.55;13.35;;;4.50;33.60;;;;;;5065361;27;20224;-77
2023/01/24 10:57:36;;;;;;;16.08;12.60;;;4.40;99.90;;;;;;5088235;27;20237;-76
2023/01/24 11:00:25;;;;;;;16.35;12.00;;;4.40;99.90;;;;;;5098667;28;20194;-76
2023/01/24 11:02:54;;;;;;;13.15;10.82;;;4.30;1.00;;;;;;5093072;27;20221;-79
2023/01/24 11:05:24;;;;;;;16.17;12.50;;;4.40;99.90;;;;;;5096142;28;20297;-78
2023/01/24 11:07:55;;;;;;;13.55;11.00;;;4.50;99.90;;;;;;5097927;28;20195;-77
2023/01/24 11:10:27;;;;;;;14.07;11.20;;;4.40;1.00;;;;;;5100415;28;20208;-77
2023/01/24 11:12:58;;;;;;;14.27;10.80;;;4.30;1.00;;;;;;5096493;28;20216;-78
2023/01/24 11:15:29;;;;;;;16.88;11.75;;;4.40;1.00;;;;;;5096762;28;20220;-77
2023/01/24 11:17:59;;;;;;;19.83;11.10;;;4.40;99.90;;;;;;5094434;28;20195;-77
2023/01/24 11:20:30;;;;;;;13.80;10.90;;;4.40;1.00;;;;;;5094708;28;20206;-78
2023/01/24 11:23:13;;;;;;;15.40;10.40;;;4.40;95.10;;;;;;5093063;28;20219;-77
2023/01/24 11:25:56;;;;;;;14.68;10.18;;;4.50;91.60;;;;;;5097595;28;20292;-77
2023/01/24 11:28:26;;;;;;;19.45;10.02;;;4.40;1.00;;;;;;5098300;28;20701;-77
2023/01/24 11:30:56;;;;;;;14.20;10.77;;;4.40;99.90;;;;;;5100327;28;20195;-77
2023/01/24 11:33:37;;;;;;;14.50;10.43;;;4.40;99.90;;;;;;5098848;28;20218;-77
2023/01/24 11:36:20;;;;;;;14.70;11.00;;;4.40;99.90;;;;;;5098219;28;20269;-77
2023/01/24 11:38:51;;;;;;;13.80;10.27;;;4.40;1.00;;;;;;5095283;27;20461;-79
2023/01/24 11:41:27;;;;;;;12.95;10.13;;;4.40;1.00;;;;;;5093696;27;20301;-76
2023/01/24 11:44:27;;;;;;;12.82;11.35;;;4.40;33.50;;;;;;5084127;27;20250;-78
2023/01/24 11:47:01;;;;;;;15.05;9.68;;;4.40;1.00;;;;;;5084992;28;20327;-78
2023/01/24 11:49:59;;;;;;;13.38;9.73;;;4.40;1.00;;;;;;5091076;27;20229;-75
2023/01/24 11:52:51;;;;;;;14.77;10.52;;;4.50;1.00;;;;;;5089617;28;20215;-77
2023/01/24 11:55:34;;;;;;;14.15;10.45;;;4.50;99.90;;;;;;5092730;28;20223;-78
2023/01/24 11:58:32;;;;;;;11.70;10.10;;;4.50;99.90;;;;;;5090237;28;20203;-77
2023/01/24 12:01:09;;;;;;;10.70;8.73;;;4.50;99.90;;;;;;5082577;28;20251;-78
2023/01/24 12:04:13;;;;;;;12.90;8.35;;;4.50;1.00;;;;;;5083599;27;20301;-77
2023/01/24 12:06:49;;;;;;;11.95;8.65;;;4.50;1.00;;;;;;5033427;28;20211;-78
2023/01/24 12:09:22;;;;;;;13.65;10.05;;;4.50;99.90;;;;;;5097756;27;20241;-77
2023/01/24 12:11:58;;;;;;;12.30;9.00;;;4.50;36.80;;;;;;5087624;28;20201;-77
2023/01/24 12:14:52;;;;;;;10.73;8.38;;;4.60;1.00;;;;;;5087468;27;20221;-78
2023/01/24 12:17:37;;;;;;;11.02;8.27;;;4.60;99.90;;;;;;5084128;28;20202;-77
2023/01/24 12:20:27;;;;;;;15.63;10.20;;;4.60;27.20;;;;;;5090242;28;20963;-77
2023/01/24 12:23:03;;;;;;;12.60;9.00;;;4.70;1.00;;;;;;5081848;28;20222;-78
2023/01/24 12:25:35;;;;;;;11.85;8.93;;;4.70;1.00;;;;;;5080959;28;20224;-77
2023/01/24 12:28:07;;;;;;;15.38;9.00;;;4.60;1.00;;;;;;5079681;28;20750;-76
2023/01/24 12:30:40;;;;;;;10.20;9.20;;;4.60;1.00;;;;;;5081945;27;20260;-79
2023/01/24 12:33:22;;;;;;;13.80;10.30;;;4.70;26.10;;;;;;5064678;28;20231;-78
2023/01/24 12:35:55;;;;;;;12.90;11.27;;;4.60;99.90;;;;;;5083517;28;20228;-78
2023/01/24 12:38:30;;;;;;;15.15;9.93;;;4.60;1.00;;;;;;5088196;28;20652;-78
2023/01/24 12:41:06;;;;;;;11.55;9.10;;;4.60;99.90;;;;;;5084600;28;21000;-75
2023/01/24 12:43:52;;;;;;;16.43;10.90;;;4.70;1.00;;;;;;5083549;28;20215;-77
2023/01/24 12:46:28;;;;;;;13.95;10.63;;;4.70;99.90;;;;;;5092627;27;20459;-77
2023/01/24 12:49:03;;;;;;;14.75;11.13;;;4.60;99.90;;;;;;5085478;28;20745;-76
2023/01/24 12:51:45;;;;;;;14.35;10.93;;;4.70;1.00;;;;;;5087275;28;20202;-77
2023/01/24 12:54:17;;;;;;;16.15;10.77;;;4.70;1.00;;;;;;5067325;28;20614;-77
2023/01/24 12:56:53;;;;;;;13.13;10.40;;;4.70;1.00;;;;;;5082832;28;20217;-75
2023/01/24 12:59:25;;;;;;;12.75;10.23;;;4.70;1.00;;;;;;5097601;28;20210;-77
2023/01/24 13:02:17;;;;;;;13.73;9.75;;;4.60;99.90;;;;;;5095174;28;20202;-77
2023/01/24 13:04:54;;;;;;;15.73;10.77;;;4.70;1.00;;;;;;5094975;28;20222;-77
2023/01/24 13:07:32;;;;;;;20.63;13.10;;;4.70;99.90;;;;;;5098703;28;20926;-77
2023/01/24 13:10:10;;;;;;;15.30;12.43;;;4.60;99.90;;;;;;5099150;28;20250;-77
2023/01/24 13:12:42;;;;;;;13.57;10.95;;;4.60;99.90;;;;;;5095620;28;20200;-77
2023/01/24 13:15:18;;;;;;;17.33;10.85;;;4.60;1.00;;;;;;5086383;28;20202;-76
2023/01/24 13:17:59;;;;;;;11.82;10.38;;;4.70;99.90;;;;;;5097637;28;20218;-77
2023/01/24 13:20:59;;;;;;;16.77;10.50;;;4.50;72.50;;;;;;5094781;28;20183;-77
2023/01/24 13:24:00;;;;;;;14.02;10.30;;;4.60;99.90;;;;;;5061761;28;20313;-77
2023/01/24 13:26:57;;;;;;;14.63;9.57;;;4.60;1.00;;;;;;5040914;28;20294;-76
2023/01/24 13:30:00;;;;;;;13.15;10.13;;;4.60;1.00;;;;;;5088140;28;20223;-78
2023/01/24 13:32:38;;;;;;;11.88;9.63;;;4.50;99.90;;;;;;5092890;28;20209;-77
2023/01/24 13:35:19;;;;;;;9.85;8.13;;;4.50;1.00;;;;;;5093635;28;20244;-77
2023/01/24 13:37:52;;;;;;;11.23;8.75;;;4.60;99.90;;;;;;5092691;28;20219;-76
2023/01/24 13:40:30;;;;;;;15.52;9.18;;;4.60;99.90;;;;;;5092270;28;20282;-77
2023/01/24 13:43:00;;;;;;;10.48;7.90;;;4.60;23.30;;;;;;5063198;28;20233;-76
2023/01/24 13:45:59;;;;;;;11.63;8.80;;;4.60;1.00;;;;;;5069455;28;20206;-77